createdAt,value
2023-02-09T12:55:01.767Z,26.8
2023-02-09T13:15:01.373Z,25.0
2023-02-09T13:20:02.185Z,45.7
2023-02-09T13:35:01.661Z,71.0
2023-02-09T13:55:02.093Z,217.8
2023-02-09T14:00:01.896Z,225.9
2023-02-09T14:15:01.549Z,122.2
2023-02-09T14:20:01.465Z,141.8
2023-02-09T14:25:01.381Z,149.3
2023-02-09T14:45:02.010Z,161.2
2023-02-09T15:05:01.480Z,95.4
2023-02-09T15:10:01.342Z,94.3
2023-02-09T15:15:01.411Z,102.6
2023-02-09T15:20:01.347Z,116.2
2023-02-09T15:25:01.454Z,132.4
2023-02-09T15:30:05.060Z,140.4
2023-02-09T15:40:01.443Z,121.8
2023-02-09T15:45:01.418Z,150.4
2023-02-09T15:50:02.443Z,143.1
2023-02-09T15:55:01.397Z,120.4
2023-02-09T16:00:01.415Z,110.5
2023-02-09T16:05:01.803Z,144.7
2023-02-09T16:10:01.990Z,125.0
2023-02-09T16:15:01.394Z,116.9
2023-02-09T16:25:01.842Z,102.4
2023-02-09T16:45:01.423Z,32.6
2023-02-09T16:50:06.361Z,13.0
2023-02-09T17:05:01.962Z,31.0
2023-02-09T17:25:01.495Z,28.0
2023-02-09T17:30:01.610Z,18.2
2023-02-09T17:35:01.403Z,34.5
2023-02-09T17:40:01.588Z,30.3
2023-02-09T17:45:01.498Z,40.2
2023-02-09T17:50:01.237Z,46.1
2023-02-09T17:55:01.555Z,56.9
2023-02-09T18:00:01.290Z,44.2
2023-02-09T18:05:01.335Z,45.6
2023-02-09T18:10:01.532Z,44.2
2023-02-09T18:15:01.375Z,46.3
2023-02-09T18:20:01.310Z,33.8
2023-02-09T18:25:02.501Z,44.8
2023-02-09T18:30:01.621Z,51.8
2023-02-09T18:35:01.680Z,58.8
2023-02-09T18:40:01.245Z,75.0
2023-02-09T18:45:01.328Z,112.4
2023-02-09T18:50:01.288Z,155.1
2023-02-09T18:55:01.626Z,160.8
2023-02-09T19:00:01.286Z,185.2
2023-02-09T19:05:02.460Z,155.4
2023-02-09T19:10:01.560Z,196.5
2023-02-09T19:15:01.339Z,177.6
2023-02-09T19:20:06.588Z,185.8
2023-02-09T19:25:01.889Z,215.5
2023-02-09T19:30:01.250Z,329.3
2023-02-09T19:35:06.378Z,281.6
2023-02-09T19:40:01.623Z,290.2
2023-02-09T19:45:01.695Z,305.4
2023-02-09T19:50:01.307Z,239.9
2023-02-09T19:55:01.445Z,163.7
2023-02-09T20:00:05.991Z,176.7
2023-02-09T20:05:01.415Z,164.3
2023-02-09T20:10:01.616Z,156.5
2023-02-09T20:15:06.488Z,175.5
2023-02-09T20:20:01.300Z,236.4
2023-02-09T20:25:01.674Z,244.8
2023-02-09T20:30:01.609Z,273.7
2023-02-09T20:35:01.517Z,287.3
2023-02-09T20:40:02.383Z,299.6
2023-02-09T20:45:01.843Z,282.8
2023-02-09T20:50:01.500Z,268.2
2023-02-09T20:55:01.466Z,253.4
2023-02-09T21:00:01.630Z,231.6
2023-02-09T21:05:06.439Z,221.2
2023-02-09T21:10:01.608Z,142.4
2023-02-09T21:15:01.369Z,154.4
2023-02-09T21:20:02.334Z,143.8
2023-02-09T21:25:01.635Z,155.6
2023-02-09T21:30:01.248Z,159.2
2023-02-09T21:35:01.333Z,180.6
2023-02-09T21:40:01.278Z,157.9
2023-02-09T21:45:01.890Z,161.2
2023-02-09T21:50:01.242Z,226.0
2023-02-09T21:55:01.337Z,285.2
2023-02-09T22:00:01.269Z,331.4
2023-02-09T22:05:01.713Z,358.5
2023-02-09T22:10:02.372Z,354.0
2023-02-09T22:15:02.472Z,278.4
2023-02-09T22:20:06.330Z,201.1
2023-02-09T22:25:01.421Z,158.4
2023-02-09T22:30:01.249Z,108.1
2023-02-09T22:35:01.339Z,117.8
2023-02-09T22:40:01.287Z,137.5
2023-02-09T22:45:02.717Z,174.1
2023-02-09T22:50:01.626Z,217.6
2023-02-09T22:55:01.439Z,274.3
2023-02-09T23:00:01.297Z,280.1
2023-02-09T23:05:06.969Z,286.1
2023-02-09T23:10:01.964Z,278.5
2023-02-09T23:15:01.420Z,278.8
2023-02-09T23:20:06.375Z,269.0
2023-02-09T23:25:02.439Z,291.5
2023-02-09T23:30:01.584Z,304.5
2023-02-09T23:35:01.574Z,313.2
2023-02-09T23:40:01.347Z,309.8
2023-02-09T23:45:01.340Z,303.2
2023-02-09T23:50:01.281Z,299.6
2023-02-09T23:55:01.872Z,289.0
